createdAt,value
2022-10-31T00:01:28.740Z,33.35
2022-10-31T00:03:56.117Z,31.90
2022-10-31T00:06:24.222Z,34.17
2022-10-31T00:08:56.645Z,38.03
2022-10-31T00:11:24.362Z,35.97
2022-10-31T00:13:51.735Z,39.08
2022-10-31T00:16:21.506Z,38.75
2022-10-31T00:18:57.666Z,39.03
2022-10-31T00:21:26.266Z,47.53
2022-10-31T00:23:53.645Z,56.00
2022-10-31T00:26:21.116Z,58.13
2022-10-31T00:28:48.553Z,70.57
2022-10-31T00:31:15.742Z,70.95
2022-10-31T00:33:43.252Z,65.57
2022-10-31T00:36:14.793Z,55.90
2022-10-31T00:38:42.635Z,56.00
2022-10-31T00:41:10.889Z,54.10
2022-10-31T00:43:42.172Z,44.90
2022-10-31T00:46:10.587Z,43.63
2022-10-31T00:48:37.801Z,37.60
2022-10-31T00:51:05.174Z,31.23
2022-10-31T00:53:33.210Z,33.28
2022-10-31T00:56:00.438Z,38.08
2022-10-31T00:58:27.946Z,63.17
2022-10-31T01:00:57.958Z,59.92
2022-10-31T01:03:27.520Z,58.30
2022-10-31T01:06:12.203Z,53.75
2022-10-31T01:08:39.881Z,60.95
2022-10-31T01:11:09.131Z,57.92
2022-10-31T01:13:36.380Z,47.80
2022-10-31T01:16:05.441Z,59.78
2022-10-31T01:18:33.450Z,68.63
2022-10-31T01:21:08.389Z,66.38
2022-10-31T01:23:36.126Z,60.95
2022-10-31T01:26:08.411Z,83.53
2022-10-31T01:28:37.469Z,99.35
2022-10-31T01:31:07.973Z,95.47
2022-10-31T01:33:36.359Z,80.75
2022-10-31T01:36:13.392Z,40.72
2022-10-31T01:38:40.752Z,59.20
2022-10-31T01:41:10.000Z,88.65
2022-10-31T01:43:55.034Z,75.18
2022-10-31T01:46:35.128Z,81.95
2022-10-31T01:49:09.364Z,65.50
2022-10-31T01:51:41.857Z,61.70
2022-10-31T01:54:13.770Z,40.85
2022-10-31T01:56:43.566Z,50.15
2022-10-31T01:59:16.983Z,49.45
2022-10-31T02:01:44.254Z,50.40
2022-10-31T02:04:11.583Z,49.92
2022-10-31T02:06:45.204Z,46.88
2022-10-31T02:09:15.073Z,35.95
2022-10-31T02:11:43.203Z,33.17
2022-10-31T02:14:12.331Z,33.33
2022-10-31T02:16:39.586Z,38.28
2022-10-31T02:19:12.635Z,39.03
2022-10-31T02:22:18.099Z,41.90
2022-10-31T02:25:04.399Z,75.95
2022-10-31T02:27:43.859Z,76.68
2022-10-31T02:30:24.651Z,48.60
2022-10-31T02:33:08.097Z,39.13
2022-10-31T02:35:41.025Z,51.35
2022-10-31T02:38:44.401Z,54.13
2022-10-31T02:41:32.783Z,48.47
2022-10-31T02:44:16.813Z,42.05
2022-10-31T02:47:04.877Z,52.30
2022-10-31T02:49:35.936Z,49.22
2022-10-31T02:52:03.048Z,42.50
2022-10-31T02:54:32.676Z,34.85
2022-10-31T02:57:05.505Z,37.70
2022-10-31T02:59:35.933Z,37.33
2022-10-31T03:02:18.255Z,32.95
2022-10-31T03:04:45.568Z,37.33
2022-10-31T03:07:32.534Z,46.47
2022-10-31T03:10:25.482Z,51.15
2022-10-31T03:13:12.786Z,39.28
2022-10-31T03:15:50.925Z,84.45
2022-10-31T03:18:21.939Z,80.20
2022-10-31T03:20:53.206Z,76.22
2022-10-31T03:23:22.818Z,57.10
2022-10-31T03:25:54.841Z,44.78
2022-10-31T03:28:32.738Z,43.35
2022-10-31T03:31:03.433Z,52.70
2022-10-31T03:33:36.971Z,61.25
2022-10-31T03:36:06.896Z,44.78
2022-10-31T03:38:36.607Z,41.95
2022-10-31T03:41:08.177Z,43.25
2022-10-31T03:43:47.264Z,40.85
2022-10-31T03:46:14.929Z,100.53
2022-10-31T03:48:42.004Z,84.28
2022-10-31T03:51:20.360Z,51.17
2022-10-31T03:53:57.768Z,56.72
2022-10-31T03:56:53.028Z,43.83
2022-10-31T03:59:43.916Z,49.63
2022-10-31T04:02:18.028Z,72.90
2022-10-31T04:04:47.360Z,69.65
2022-10-31T04:07:15.941Z,51.90
2022-10-31T04:09:46.387Z,63.55
2022-10-31T04:12:16.758Z,56.40
2022-10-31T04:15:05.066Z,50.63
2022-10-31T04:17:39.593Z,56.30
2022-10-31T04:20:07.461Z,54.22
2022-10-31T04:22:34.995Z,45.22
2022-10-31T04:25:02.124Z,81.53
2022-10-31T04:27:29.329Z,66.80
2022-10-31T04:29:56.501Z,32.78
2022-10-31T04:32:23.710Z,52.67
2022-10-31T04:34:53.129Z,64.88
2022-10-31T04:37:20.365Z,33.55
2022-10-31T04:39:48.697Z,42.38
2022-10-31T04:42:34.700Z,31.85
2022-10-31T04:45:04.851Z,32.65
2022-10-31T04:47:34.465Z,25.63
2022-10-31T04:50:03.015Z,33.28
2022-10-31T04:52:30.391Z,27.55
2022-10-31T04:54:58.306Z,36.33
2022-10-31T04:57:54.774Z,40.13
2022-10-31T05:00:24.247Z,33.83
2022-10-31T05:02:56.975Z,25.60
2022-10-31T05:05:30.768Z,26.40
2022-10-31T05:07:59.796Z,27.52
2022-10-31T05:10:29.511Z,28.42
2022-10-31T05:13:02.084Z,50.33
2022-10-31T05:15:55.048Z,59.78
2022-10-31T05:18:40.189Z,38.17
2022-10-31T05:21:13.111Z,51.13
2022-10-31T05:23:48.498Z,37.03
2022-10-31T05:26:16.273Z,38.83
2022-10-31T05:28:43.810Z,32.55
2022-10-31T05:31:11.907Z,31.30
2022-10-31T05:33:39.083Z,29.15
2022-10-31T05:36:12.150Z,31.30
2022-10-31T05:38:43.803Z,27.58
2022-10-31T05:41:22.379Z,31.00
2022-10-31T05:43:49.708Z,29.95
2022-10-31T05:46:20.575Z,28.33
2022-10-31T05:49:03.165Z,25.77
2022-10-31T05:51:48.538Z,31.95
2022-10-31T05:54:16.273Z,25.73
2022-10-31T05:56:45.864Z,26.73
2022-10-31T05:59:13.195Z,42.10
2022-10-31T06:01:41.061Z,52.30
2022-10-31T06:04:22.333Z,60.22
2022-10-31T06:06:49.425Z,59.53
2022-10-31T06:09:17.081Z,43.25
2022-10-31T06:11:45.204Z,48.78
2022-10-31T06:14:27.424Z,46.15
2022-10-31T06:16:57.063Z,37.67
2022-10-31T06:19:42.781Z,38.55
2022-10-31T06:22:12.515Z,36.35
2022-10-31T06:24:40.191Z,40.70
2022-10-31T06:27:26.266Z,31.10
2022-10-31T06:29:54.302Z,55.72
2022-10-31T06:32:35.851Z,41.05
2022-10-31T06:35:03.133Z,30.05
2022-10-31T06:37:30.161Z,32.40
2022-10-31T06:40:04.503Z,31.17
2022-10-31T06:42:40.212Z,24.23
2022-10-31T06:45:10.246Z,32.20
2022-10-31T06:48:17.179Z,25.35
2022-10-31T06:51:04.031Z,36.53
2022-10-31T06:53:32.688Z,40.63
2022-10-31T06:56:00.138Z,28.13
2022-10-31T06:58:27.330Z,32.28
2022-10-31T07:01:01.488Z,40.30
2022-10-31T07:03:30.625Z,37.92
2022-10-31T07:05:58.603Z,43.58
2022-10-31T07:08:26.449Z,20.80
2022-10-31T07:10:55.623Z,27.02
2022-10-31T07:13:28.130Z,32.17
2022-10-31T07:16:05.928Z,30.55
2022-10-31T07:18:35.849Z,29.70
2022-10-31T07:21:03.676Z,27.10
2022-10-31T07:23:33.096Z,26.60
2022-10-31T07:26:29.967Z,25.85
2022-10-31T07:28:57.988Z,24.10
2022-10-31T07:31:26.754Z,24.10
2022-10-31T07:33:57.958Z,23.40
2022-10-31T07:36:28.188Z,19.38
2022-10-31T07:38:59.987Z,21.42
2022-10-31T07:41:27.724Z,19.15
2022-10-31T07:43:55.568Z,16.45
2022-10-31T07:46:48.968Z,19.20
2022-10-31T07:49:36.306Z,17.95
2022-10-31T07:52:22.139Z,20.20
2022-10-31T07:55:12.414Z,17.50
2022-10-31T07:57:39.785Z,23.88
2022-10-31T08:00:10.087Z,23.08
2022-10-31T08:02:42.199Z,21.05
2022-10-31T08:05:36.432Z,18.10
2022-10-31T08:08:30.306Z,19.73
2022-10-31T08:10:59.308Z,19.30
2022-10-31T08:13:26.953Z,21.58
2022-10-31T08:15:55.347Z,18.60
2022-10-31T08:18:25.986Z,17.17
2022-10-31T08:20:54.995Z,18.52
2022-10-31T08:23:22.700Z,20.27
2022-10-31T08:25:50.127Z,17.95
2022-10-31T08:28:18.028Z,19.75
2022-10-31T08:30:48.354Z,18.60
2022-10-31T08:33:34.717Z,19.05
2022-10-31T08:38:56.510Z,15.98
2022-10-31T08:41:28.400Z,14.55
2022-10-31T08:43:55.645Z,20.50
2022-10-31T08:46:22.688Z,18.58
2022-10-31T08:48:50.252Z,19.42
2022-10-31T08:51:19.459Z,23.10
2022-10-31T08:53:49.857Z,20.75
2022-10-31T08:56:45.838Z,18.48
2022-10-31T08:59:33.296Z,20.13
2022-10-31T09:02:35.857Z,18.23
2022-10-31T09:05:03.138Z,20.98
2022-10-31T09:07:30.269Z,23.17
2022-10-31T09:09:59.758Z,20.75
2022-10-31T09:12:31.143Z,23.30
2022-10-31T09:15:16.836Z,26.15
2022-10-31T09:18:15.487Z,30.02
2022-10-31T09:20:51.505Z,25.20
2022-10-31T09:23:25.566Z,35.92
2022-10-31T09:25:57.071Z,30.65
2022-10-31T09:28:43.112Z,42.90
2022-10-31T09:31:13.546Z,38.28
2022-10-31T09:34:02.831Z,44.53
2022-10-31T09:36:39.808Z,32.63
2022-10-31T09:39:27.098Z,29.60
2022-10-31T09:42:21.470Z,25.65
2022-10-31T09:45:01.815Z,27.77
2022-10-31T09:47:59.988Z,27.98
2022-10-31T09:50:54.116Z,28.73
2022-10-31T09:53:52.461Z,30.15
2022-10-31T09:56:24.273Z,51.40
2022-10-31T09:58:59.093Z,44.03
2022-10-31T10:01:43.922Z,31.92
2022-10-31T10:07:08.926Z,29.83
2022-10-31T10:10:03.410Z,31.02
2022-10-31T10:13:30.224Z,32.88
2022-10-31T10:16:16.081Z,33.40
2022-10-31T10:19:03.882Z,32.10
2022-10-31T10:21:45.620Z,35.22
2022-10-31T10:24:25.440Z,30.67
2022-10-31T10:27:22.194Z,169.90
2022-10-31T10:30:15.652Z,33.22
2022-10-31T10:32:52.736Z,85.10
2022-10-31T10:35:24.658Z,35.00
2022-10-31T10:37:59.244Z,75.82
2022-10-31T10:40:28.749Z,38.80
2022-10-31T10:43:20.364Z,38.83
2022-10-31T10:46:38.875Z,48.25
2022-10-31T10:49:15.447Z,44.13
2022-10-31T10:52:19.392Z,67.90
2022-10-31T10:54:55.585Z,59.90
2022-10-31T10:57:47.901Z,39.25
2022-10-31T11:00:47.448Z,34.65
2022-10-31T11:03:15.567Z,39.15
2022-10-31T11:06:01.584Z,47.42
2022-10-31T11:08:35.829Z,42.08
2022-10-31T11:11:26.347Z,36.55
2022-10-31T11:14:13.409Z,45.22
2022-10-31T11:16:55.546Z,52.88
2022-10-31T11:19:27.997Z,62.72
2022-10-31T11:22:06.329Z,60.33
2022-10-31T11:24:39.702Z,61.40
2022-10-31T11:27:21.290Z,67.65
2022-10-31T11:29:48.497Z,66.05
2022-10-31T11:32:24.977Z,60.65
2022-10-31T11:35:04.654Z,58.78
2022-10-31T11:37:36.387Z,62.53
2022-10-31T11:40:07.130Z,59.90
2022-10-31T11:42:41.218Z,51.53
2022-10-31T11:45:35.126Z,62.97
2022-10-31T11:48:15.016Z,56.90
2022-10-31T11:50:43.829Z,58.40
2022-10-31T11:53:21.374Z,63.30
2022-10-31T11:55:59.854Z,72.78
2022-10-31T11:58:27.727Z,63.30
2022-10-31T12:00:57.221Z,64.70
2022-10-31T12:03:24.970Z,66.22
2022-10-31T12:06:06.071Z,74.07
2022-10-31T12:08:35.924Z,71.22
2022-10-31T12:11:41.098Z,61.63
2022-10-31T12:14:23.928Z,70.85
2022-10-31T12:17:16.905Z,69.32
2022-10-31T12:20:00.559Z,65.13
2022-10-31T12:22:46.250Z,68.82
2022-10-31T12:25:41.435Z,77.43
2022-10-31T12:28:46.362Z,72.97
2022-10-31T12:31:40.002Z,69.60
2022-10-31T12:34:38.055Z,67.78
2022-10-31T12:37:16.584Z,79.45
2022-10-31T12:40:05.065Z,75.10
2022-10-31T12:43:06.764Z,78.43
2022-10-31T12:45:45.841Z,81.63
2022-10-31T12:48:16.040Z,76.85
2022-10-31T12:50:59.464Z,89.15
2022-10-31T12:53:45.823Z,83.07
2022-10-31T12:56:43.788Z,82.22
2022-10-31T12:59:40.064Z,87.90
2022-10-31T13:02:28.383Z,79.13
2022-10-31T13:05:18.633Z,77.72
2022-10-31T13:08:11.178Z,79.18
2022-10-31T13:13:42.661Z,81.97
2022-10-31T13:16:20.620Z,89.00
2022-10-31T13:19:04.789Z,82.47
2022-10-31T13:21:40.306Z,86.33
2022-10-31T13:24:17.619Z,87.95
2022-10-31T13:26:55.233Z,92.45
2022-10-31T13:29:34.509Z,86.70
2022-10-31T13:32:06.167Z,92.75
2022-10-31T13:34:47.070Z,89.78
2022-10-31T13:37:17.094Z,100.18
2022-10-31T13:39:52.566Z,83.05
2022-10-31T13:42:26.864Z,92.20
2022-10-31T13:44:53.860Z,103.97
2022-10-31T13:47:27.310Z,99.20
2022-10-31T13:50:25.687Z,90.32
2022-10-31T13:52:55.596Z,97.53
2022-10-31T13:55:46.541Z,90.40
2022-10-31T13:58:26.247Z,81.68
2022-10-31T14:01:23.215Z,89.07
2022-10-31T14:04:20.694Z,88.28
2022-10-31T14:07:13.292Z,95.53
2022-10-31T14:10:03.573Z,76.60
2022-10-31T14:12:32.602Z,107.00
2022-10-31T14:15:05.176Z,89.13
2022-10-31T14:17:47.605Z,79.10
2022-10-31T14:20:15.114Z,79.45
2022-10-31T14:22:43.157Z,109.43
2022-10-31T14:25:34.880Z,91.80
2022-10-31T14:28:18.681Z,83.43
2022-10-31T14:30:57.052Z,111.38
2022-10-31T14:33:27.732Z,111.95
2022-10-31T14:36:05.165Z,105.22
2022-10-31T14:38:53.780Z,105.32
2022-10-31T14:41:34.183Z,90.68
2022-10-31T14:44:42.542Z,81.47
2022-10-31T14:47:20.289Z,131.98
2022-10-31T14:50:13.971Z,174.88
2022-10-31T14:52:43.753Z,156.13
2022-10-31T14:55:14.174Z,125.70
2022-10-31T14:58:05.658Z,100.47
2022-10-31T15:00:33.958Z,95.72
2022-10-31T15:03:21.728Z,161.65
2022-10-31T15:05:54.389Z,114.88
2022-10-31T15:08:41.384Z,176.80
2022-10-31T15:11:18.509Z,140.38
2022-10-31T15:13:51.190Z,166.93
2022-10-31T15:16:40.811Z,168.48
2022-10-31T15:19:12.963Z,178.60
2022-10-31T15:21:48.538Z,113.35
2022-10-31T15:24:16.976Z,136.35
2022-10-31T15:26:47.955Z,146.07
2022-10-31T15:29:26.802Z,107.15
2022-10-31T15:32:16.495Z,109.43
2022-10-31T15:34:47.773Z,139.48
2022-10-31T15:37:19.945Z,99.57
2022-10-31T15:39:50.075Z,97.50
2022-10-31T15:42:35.173Z,84.88
2022-10-31T15:45:17.727Z,137.90
2022-10-31T15:47:55.925Z,107.85
2022-10-31T15:50:41.220Z,113.90
2022-10-31T15:55:52.751Z,123.32
2022-10-31T15:58:20.393Z,123.55
2022-10-31T16:01:05.066Z,123.05
2022-10-31T16:03:33.896Z,102.50
2022-10-31T16:06:04.776Z,93.60
2022-10-31T16:08:31.874Z,105.75
2022-10-31T16:11:17.556Z,96.82
2022-10-31T16:14:18.439Z,101.38
2022-10-31T16:19:36.587Z,106.70
2022-10-31T16:22:13.183Z,129.98
2022-10-31T16:25:07.219Z,108.70
2022-10-31T16:27:37.678Z,102.80
2022-10-31T16:30:44.001Z,111.22
2022-10-31T16:33:41.552Z,154.05
2022-10-31T16:36:36.561Z,123.38
2022-10-31T16:39:04.449Z,118.55
2022-10-31T16:41:32.680Z,128.10
2022-10-31T16:44:05.277Z,131.77
2022-10-31T16:46:32.262Z,169.45
2022-10-31T16:48:59.474Z,133.20
2022-10-31T16:51:26.460Z,135.45
2022-10-31T16:53:54.397Z,124.95
2022-10-31T16:56:39.752Z,127.30
2022-10-31T16:59:16.082Z,128.48
2022-10-31T17:01:47.247Z,149.82
2022-10-31T17:04:15.488Z,116.78
2022-10-31T17:06:43.222Z,154.95
2022-10-31T17:09:10.830Z,135.48
2022-10-31T17:11:49.353Z,166.02
2022-10-31T17:14:18.780Z,135.65
2022-10-31T17:16:45.779Z,245.88
2022-10-31T17:19:13.555Z,226.25
2022-10-31T17:21:41.135Z,214.73
2022-10-31T17:24:14.650Z,158.63
2022-10-31T17:26:42.456Z,160.50
2022-10-31T17:29:09.787Z,103.93
2022-10-31T17:31:39.155Z,91.10
2022-10-31T17:34:07.210Z,90.10
2022-10-31T17:36:36.309Z,112.45
2022-10-31T17:39:05.855Z,102.95
2022-10-31T17:41:32.918Z,116.13
2022-10-31T17:44:00.119Z,105.18
2022-10-31T17:46:28.585Z,109.85
2022-10-31T17:48:55.922Z,145.77
2022-10-31T17:51:23.120Z,106.25
2022-10-31T17:53:50.365Z,118.22
2022-10-31T17:56:18.505Z,133.75
2022-10-31T17:58:46.387Z,93.85
2022-10-31T18:01:15.577Z,77.43
2022-10-31T18:03:43.432Z,66.63
2022-10-31T18:06:11.617Z,108.88
2022-10-31T18:08:40.597Z,107.85
2022-10-31T18:11:14.677Z,99.65
2022-10-31T18:13:42.197Z,132.10
2022-10-31T18:16:15.298Z,178.07
2022-10-31T18:18:43.217Z,186.85
2022-10-31T18:21:10.589Z,149.13
2022-10-31T18:23:38.155Z,228.60
2022-10-31T18:26:05.419Z,172.25
2022-10-31T18:28:33.484Z,95.80
2022-10-31T18:31:03.475Z,103.30
2022-10-31T18:33:30.983Z,96.93
2022-10-31T18:36:05.871Z,87.68
2022-10-31T18:38:34.285Z,68.63
2022-10-31T18:41:01.299Z,67.78
2022-10-31T18:43:28.508Z,73.80
2022-10-31T18:45:58.179Z,81.60
2022-10-31T18:48:28.281Z,69.03
2022-10-31T18:50:58.052Z,69.47
2022-10-31T18:53:25.534Z,110.10
2022-10-31T18:55:52.568Z,106.75
2022-10-31T18:58:20.285Z,99.45
2022-10-31T19:00:47.805Z,78.40
2022-10-31T19:03:24.951Z,62.10
2022-10-31T19:05:59.272Z,79.47
2022-10-31T19:11:10.423Z,93.85
2022-10-31T19:13:38.840Z,103.85
2022-10-31T19:16:06.253Z,80.68
2022-10-31T19:18:33.724Z,55.63
2022-10-31T19:21:08.537Z,116.68
2022-10-31T19:23:36.106Z,105.35
2022-10-31T19:26:03.739Z,71.95
2022-10-31T19:28:33.084Z,637.83
2022-10-31T19:31:00.646Z,231.43
2022-10-31T19:33:34.804Z,124.80
2022-10-31T19:36:10.217Z,96.07
2022-10-31T19:38:42.127Z,124.95
2022-10-31T19:41:14.605Z,81.05
2022-10-31T19:43:42.487Z,93.63
2022-10-31T19:46:22.461Z,89.90
2022-10-31T19:48:55.265Z,94.40
2022-10-31T19:51:22.355Z,100.18
2022-10-31T19:53:49.872Z,89.63
2022-10-31T19:56:22.592Z,82.38
2022-10-31T19:58:49.967Z,104.80
2022-10-31T20:01:19.263Z,95.93
2022-10-31T20:03:47.560Z,89.50
2022-10-31T20:06:19.472Z,74.95
2022-10-31T20:08:47.454Z,88.30
2022-10-31T20:11:14.908Z,73.65
2022-10-31T20:13:42.449Z,90.38
2022-10-31T20:16:15.759Z,74.60
2022-10-31T20:18:44.183Z,93.63
2022-10-31T20:21:14.004Z,78.85
2022-10-31T20:23:42.035Z,85.57
2022-10-31T20:26:11.498Z,91.65
2022-10-31T20:28:43.195Z,64.97
2022-10-31T20:31:13.891Z,55.45
2022-10-31T20:33:41.587Z,61.38
2022-10-31T20:36:09.509Z,70.07
2022-10-31T20:38:40.976Z,103.18
2022-10-31T20:41:10.628Z,57.58
2022-10-31T20:43:38.751Z,63.40
2022-10-31T20:46:14.534Z,119.18
2022-10-31T20:48:42.365Z,82.40
2022-10-31T20:51:19.755Z,54.80
2022-10-31T20:53:47.924Z,62.42
2022-10-31T20:56:18.151Z,56.13
2022-10-31T20:58:46.371Z,72.68
2022-10-31T21:01:16.015Z,47.55
2022-10-31T21:03:44.640Z,62.03
2022-10-31T21:06:12.424Z,53.90
2022-10-31T21:08:41.600Z,67.28
2022-10-31T21:11:11.658Z,62.72
2022-10-31T21:13:41.368Z,52.42
2022-10-31T21:16:11.017Z,62.80
2022-10-31T21:18:40.140Z,61.42
2022-10-31T21:21:12.014Z,99.75
2022-10-31T21:23:40.160Z,124.18
2022-10-31T21:26:09.641Z,70.22
2022-10-31T21:28:37.471Z,86.65
2022-10-31T21:31:10.578Z,69.93
2022-10-31T21:33:38.809Z,66.22
2022-10-31T21:36:06.321Z,77.00
2022-10-31T21:38:38.049Z,92.75
2022-10-31T21:41:07.456Z,73.47
2022-10-31T21:43:40.728Z,58.70
2022-10-31T21:46:10.927Z,68.40
2022-10-31T21:48:41.851Z,64.05
2022-10-31T21:51:11.175Z,72.68
2022-10-31T21:53:57.386Z,95.82
2022-10-31T21:56:25.136Z,83.40
2022-10-31T21:58:53.146Z,77.75
2022-10-31T22:01:20.966Z,66.88
2022-10-31T22:03:50.055Z,70.60
2022-10-31T22:06:17.304Z,83.82
2022-10-31T22:08:44.867Z,89.03
2022-10-31T22:11:15.317Z,67.00
2022-10-31T22:13:45.834Z,67.43
2022-10-31T22:16:15.449Z,87.47
2022-10-31T22:18:43.299Z,72.80
2022-10-31T22:21:13.761Z,48.08
2022-10-31T22:23:41.751Z,57.03
2022-10-31T22:26:16.136Z,156.80
2022-10-31T22:28:45.649Z,138.52
2022-10-31T22:31:18.021Z,90.10
2022-10-31T22:33:46.387Z,60.97
2022-10-31T22:36:19.717Z,57.10
2022-10-31T22:38:47.436Z,68.43
2022-10-31T22:41:16.913Z,84.85
2022-10-31T22:43:44.701Z,59.80
2022-10-31T22:46:17.367Z,55.50
2022-10-31T22:48:50.341Z,63.55
2022-10-31T22:51:25.713Z,67.88
2022-10-31T22:53:54.330Z,47.22
2022-10-31T22:56:23.084Z,63.20
2022-10-31T22:58:50.373Z,78.68
2022-10-31T23:01:20.529Z,64.38
2022-10-31T23:03:48.364Z,57.33
2022-10-31T23:06:18.420Z,46.72
2022-10-31T23:08:46.149Z,65.78
2022-10-31T23:11:22.010Z,57.70
2022-10-31T23:14:10.240Z,62.58
2022-10-31T23:16:57.049Z,60.47
2022-10-31T23:19:27.696Z,63.80
2022-10-31T23:22:01.859Z,59.40
2022-10-31T23:24:36.730Z,65.18
2022-10-31T23:27:14.766Z,64.07
2022-10-31T23:29:46.517Z,52.05
2022-10-31T23:32:37.709Z,65.82
2022-10-31T23:35:10.117Z,51.33
2022-10-31T23:37:38.560Z,46.83
2022-10-31T23:40:08.601Z,43.42
2022-10-31T23:42:35.913Z,37.83
2022-10-31T23:45:03.281Z,40.33
2022-10-31T23:47:30.565Z,32.50
2022-10-31T23:49:58.255Z,40.50
2022-10-31T23:52:25.447Z,41.92
2022-10-31T23:54:52.699Z,39.38
2022-10-31T23:57:19.930Z,34.90
2022-10-31T23:59:47.949Z,37.10
